createdAt,value
2022-09-23T00:01:26.751Z,44.57
2022-09-23T00:03:54.806Z,44.54
2022-09-23T00:06:24.450Z,44.92
2022-09-23T00:08:52.901Z,44.72
2022-09-23T00:11:28.676Z,44.84
2022-09-23T00:14:00.128Z,44.66
2022-09-23T00:16:32.648Z,44.75
2022-09-23T00:19:02.469Z,44.48
2022-09-23T00:21:30.211Z,44.67
2022-09-23T00:23:57.968Z,44.53
2022-09-23T00:26:25.751Z,44.68
2022-09-23T00:28:53.647Z,44.46
2022-09-23T00:31:26.030Z,44.61
2022-09-23T00:33:56.809Z,44.50
2022-09-23T00:36:26.301Z,44.44
2022-09-23T00:38:55.104Z,44.38
2022-09-23T00:41:23.200Z,44.46
2022-09-23T00:43:50.818Z,44.63
2022-09-23T00:46:23.539Z,44.47
2022-09-23T00:49:03.079Z,44.45
2022-09-23T00:51:38.645Z,44.40
2022-09-23T00:54:07.013Z,44.51
2022-09-23T00:56:36.837Z,44.67
2022-09-23T00:59:07.456Z,44.77
2022-09-23T01:01:37.394Z,44.67
2022-09-23T01:04:07.923Z,44.71
2022-09-23T01:06:36.217Z,44.81
2022-09-23T01:09:04.581Z,44.85
2022-09-23T01:12:00.750Z,44.82
2022-09-23T01:14:55.976Z,44.91
2022-09-23T01:17:34.418Z,44.66
2022-09-23T01:20:35.847Z,44.96
2022-09-23T01:23:42.646Z,44.98
2022-09-23T01:26:37.499Z,45.08
2022-09-23T01:29:29.610Z,45.15
2022-09-23T01:32:07.023Z,45.38
2022-09-23T01:34:47.238Z,45.39
2022-09-23T01:37:32.148Z,45.19
2022-09-23T01:40:54.163Z,45.24
2022-09-23T01:43:40.903Z,45.21
2022-09-23T01:46:31.566Z,45.08
2022-09-23T01:49:31.706Z,45.01
2022-09-23T01:52:17.921Z,45.03
2022-09-23T01:55:06.021Z,44.87
2022-09-23T01:57:43.710Z,45.24
2022-09-23T02:00:17.277Z,45.39
2022-09-23T02:03:27.488Z,45.22
2022-09-23T02:06:39.065Z,45.68
2022-09-23T02:09:15.777Z,45.71
2022-09-23T02:11:49.157Z,45.57
2022-09-23T02:14:30.474Z,45.75
2022-09-23T02:17:08.533Z,45.53
2022-09-23T02:19:54.028Z,45.60
2022-09-23T02:22:56.107Z,45.35
2022-09-23T02:25:35.485Z,45.45
2022-09-23T02:28:20.118Z,45.55
2022-09-23T02:31:01.684Z,45.65
2022-09-23T02:34:08.606Z,45.53
2022-09-23T02:36:56.172Z,45.75
2022-09-23T02:39:50.094Z,45.89
2022-09-23T02:42:24.300Z,45.89
2022-09-23T02:44:52.201Z,45.76
2022-09-23T02:47:27.936Z,46.06
2022-09-23T02:49:56.440Z,45.97
2022-09-23T02:52:25.125Z,45.87
2022-09-23T02:54:53.147Z,46.16
2022-09-23T02:57:21.080Z,46.18
2022-09-23T02:59:50.592Z,46.00
2022-09-23T03:02:34.506Z,45.76
2022-09-23T03:05:05.250Z,46.12
2022-09-23T03:08:07.532Z,46.16
2022-09-23T03:10:59.512Z,46.13
2022-09-23T03:13:51.344Z,45.91
2022-09-23T03:16:32.494Z,46.26
2022-09-23T03:19:42.413Z,45.99
2022-09-23T03:22:24.448Z,46.38
2022-09-23T03:24:56.013Z,46.56
2022-09-23T03:27:27.474Z,46.83
2022-09-23T03:29:56.894Z,46.49
2022-09-23T03:32:28.215Z,46.90
2022-09-23T03:34:59.906Z,46.69
2022-09-23T03:37:44.191Z,46.79
2022-09-23T03:40:33.746Z,46.67
2022-09-23T03:43:05.165Z,47.08
2022-09-23T03:45:34.693Z,47.00
2022-09-23T03:48:03.084Z,47.41
2022-09-23T03:50:30.850Z,47.16
2022-09-23T03:52:59.385Z,47.33
2022-09-23T03:55:27.375Z,47.37
2022-09-23T03:57:55.756Z,47.39
2022-09-23T04:00:23.597Z,47.22
2022-09-23T04:02:51.374Z,47.16
2022-09-23T04:05:19.189Z,47.03
2022-09-23T04:07:48.154Z,47.39
2022-09-23T04:10:16.019Z,46.98
2022-09-23T04:12:43.782Z,47.43
2022-09-23T04:15:11.944Z,47.08
2022-09-23T04:17:39.788Z,47.15
2022-09-23T04:20:07.958Z,47.37
2022-09-23T04:22:38.697Z,47.46
2022-09-23T04:25:07.375Z,47.23
2022-09-23T04:27:37.745Z,47.37
2022-09-23T04:30:07.093Z,47.54
2022-09-23T04:32:34.850Z,46.98
2022-09-23T04:35:02.625Z,47.28
2022-09-23T04:37:30.479Z,47.33
2022-09-23T04:39:58.238Z,47.22
2022-09-23T04:42:30.095Z,46.98
2022-09-23T04:44:58.099Z,47.44
2022-09-23T04:47:26.187Z,47.55
2022-09-23T04:49:57.759Z,47.70
2022-09-23T04:52:27.481Z,47.81
2022-09-23T04:54:55.245Z,47.39
2022-09-23T04:57:23.220Z,47.15
2022-09-23T04:59:51.107Z,47.77
2022-09-23T05:02:18.974Z,47.64
2022-09-23T05:04:46.977Z,47.44
2022-09-23T05:07:15.341Z,47.28
2022-09-23T05:09:43.098Z,47.42
2022-09-23T05:12:11.445Z,47.46
2022-09-23T05:14:39.249Z,47.45
2022-09-23T05:17:07.092Z,47.54
2022-09-23T05:19:35.524Z,47.96
2022-09-23T05:22:05.577Z,47.88
2022-09-23T05:24:33.363Z,48.03
2022-09-23T05:27:01.080Z,48.17
2022-09-23T05:29:29.212Z,48.22
2022-09-23T05:31:57.027Z,47.90
2022-09-23T05:34:24.887Z,48.19
2022-09-23T05:36:52.675Z,48.24
2022-09-23T05:39:20.482Z,48.04
2022-09-23T05:41:49.078Z,47.96
2022-09-23T05:44:17.891Z,48.11
2022-09-23T05:46:45.694Z,48.08
2022-09-23T05:49:13.509Z,48.38
2022-09-23T05:51:41.258Z,48.37
2022-09-23T05:54:09.429Z,48.45
2022-09-23T05:56:38.095Z,48.07
2022-09-23T05:59:06.336Z,48.29
2022-09-23T06:01:36.768Z,48.13
2022-09-23T06:04:08.158Z,48.40
2022-09-23T06:06:42.080Z,48.06
2022-09-23T06:09:15.211Z,48.00
2022-09-23T06:11:43.310Z,47.97
2022-09-23T06:14:14.970Z,48.09
2022-09-23T06:16:43.197Z,47.95
2022-09-23T06:19:11.213Z,47.64
2022-09-23T06:21:40.924Z,47.80
2022-09-23T06:24:09.711Z,47.84
2022-09-23T06:26:38.357Z,47.71
2022-09-23T06:29:12.023Z,47.68
2022-09-23T06:31:42.101Z,47.32
2022-09-23T06:34:13.640Z,47.98
2022-09-23T06:36:45.482Z,47.85
2022-09-23T06:39:17.175Z,47.67
2022-09-23T06:41:45.582Z,47.64
2022-09-23T06:44:14.909Z,47.67
2022-09-23T06:46:43.258Z,47.72
2022-09-23T06:49:14.167Z,47.67
2022-09-23T06:51:42.300Z,47.44
2022-09-23T06:54:11.174Z,47.45
2022-09-23T06:56:40.059Z,47.33
2022-09-23T06:59:13.116Z,47.22
2022-09-23T07:01:41.678Z,47.28
2022-09-23T07:04:10.843Z,47.19
2022-09-23T07:06:39.227Z,47.15
2022-09-23T07:09:08.467Z,46.82
2022-09-23T07:11:37.113Z,47.01
2022-09-23T07:14:05.118Z,47.24
2022-09-23T07:16:33.095Z,47.05
2022-09-23T07:19:00.856Z,47.33
2022-09-23T07:21:28.657Z,47.17
2022-09-23T07:23:58.254Z,47.03
2022-09-23T07:26:26.666Z,47.36
2022-09-23T07:29:04.711Z,46.99
2022-09-23T07:31:39.711Z,47.03
2022-09-23T07:34:16.513Z,46.62
2022-09-23T07:36:45.183Z,46.92
2022-09-23T07:39:14.028Z,47.12
2022-09-23T07:41:44.247Z,46.75
2022-09-23T07:44:12.479Z,46.69
2022-09-23T07:46:40.485Z,46.81
2022-09-23T07:49:08.655Z,46.80
2022-09-23T07:51:39.423Z,46.64
2022-09-23T07:54:13.281Z,46.68
2022-09-23T07:56:42.043Z,46.38
2022-09-23T07:59:18.308Z,46.33
2022-09-23T08:01:50.636Z,46.24
2022-09-23T08:04:21.698Z,46.50
2022-09-23T08:06:57.604Z,46.44
2022-09-23T08:09:35.568Z,46.32
2022-09-23T08:12:03.610Z,46.25
2022-09-23T08:14:31.893Z,46.16
2022-09-23T08:16:59.783Z,45.65
2022-09-23T08:19:27.606Z,45.56
2022-09-23T08:21:55.527Z,45.44
2022-09-23T08:24:24.252Z,45.33
2022-09-23T08:26:54.136Z,45.38
2022-09-23T08:29:24.951Z,45.18
2022-09-23T08:31:53.632Z,45.19
2022-09-23T08:34:23.701Z,45.22
2022-09-23T08:36:52.447Z,45.15
2022-09-23T08:39:21.538Z,44.79
2022-09-23T08:42:21.825Z,45.00
2022-09-23T08:44:55.142Z,44.43
2022-09-23T08:47:40.819Z,45.06
2022-09-23T08:50:14.356Z,45.09
2022-09-23T08:53:02.797Z,45.06
2022-09-23T08:55:50.890Z,45.06
2022-09-23T08:58:35.196Z,45.24
2022-09-23T09:01:27.771Z,44.96
2022-09-23T09:04:22.494Z,45.17
2022-09-23T09:07:24.477Z,44.99
2022-09-23T09:10:20.136Z,45.06
2022-09-23T09:13:10.929Z,44.96
2022-09-23T09:16:48.303Z,45.24
2022-09-23T09:19:23.874Z,44.83
2022-09-23T09:21:55.553Z,44.79
2022-09-23T09:24:35.360Z,45.00
2022-09-23T09:27:12.621Z,45.09
2022-09-23T09:29:50.109Z,45.00
2022-09-23T09:32:56.870Z,44.97
2022-09-23T09:35:36.833Z,45.18
2022-09-23T09:38:05.911Z,44.74
2022-09-23T09:40:35.257Z,44.84
2022-09-23T09:43:04.737Z,44.86
2022-09-23T09:46:14.774Z,45.13
2022-09-23T09:49:23.367Z,45.17
2022-09-23T09:52:29.722Z,44.98
2022-09-23T09:55:27.407Z,45.13
2022-09-23T09:58:05.748Z,44.54
2022-09-23T10:00:35.613Z,44.60
2022-09-23T10:03:39.806Z,44.97
2022-09-23T10:06:24.658Z,45.27
2022-09-23T10:09:12.786Z,45.26
2022-09-23T10:11:41.202Z,45.20
2022-09-23T10:14:19.200Z,45.57
2022-09-23T10:17:01.886Z,45.16
2022-09-23T10:19:30.104Z,45.41
2022-09-23T10:22:04.872Z,45.35
2022-09-23T10:24:36.963Z,45.16
2022-09-23T10:27:11.958Z,45.24
2022-09-23T10:29:47.983Z,45.44
2022-09-23T10:32:38.729Z,45.47
2022-09-23T10:35:09.353Z,45.33
2022-09-23T10:37:41.163Z,45.33
2022-09-23T10:40:44.795Z,45.11
2022-09-23T10:43:58.930Z,45.12
2022-09-23T10:46:45.912Z,44.69
2022-09-23T10:49:22.346Z,44.69
2022-09-23T10:52:14.725Z,44.99
2022-09-23T10:55:18.817Z,45.00
2022-09-23T10:57:46.525Z,44.61
2022-09-23T11:00:24.070Z,44.39
2022-09-23T11:03:24.977Z,44.16
2022-09-23T11:06:41.942Z,43.82
2022-09-23T11:09:47.320Z,43.78
2022-09-23T11:12:45.032Z,43.32
2022-09-23T11:16:12.762Z,42.62
2022-09-23T11:19:18.482Z,42.11
2022-09-23T11:22:37.477Z,42.17
2022-09-23T11:25:14.128Z,42.01
2022-09-23T11:28:17.899Z,41.59
2022-09-23T11:31:14.554Z,40.86
2022-09-23T11:33:48.960Z,41.29
2022-09-23T11:36:34.054Z,41.30
2022-09-23T11:39:20.881Z,41.10
2022-09-23T11:41:53.895Z,41.38
2022-09-23T11:44:41.200Z,41.53
2022-09-23T11:47:24.938Z,41.95
2022-09-23T11:50:19.822Z,41.57
2022-09-23T11:53:14.040Z,40.73
2022-09-23T11:55:57.927Z,41.45
2022-09-23T11:58:37.916Z,40.76
2022-09-23T12:01:37.360Z,40.79
2022-09-23T12:04:52.118Z,40.60
2022-09-23T12:07:37.718Z,40.46
2022-09-23T12:10:08.751Z,40.05
2022-09-23T12:12:36.405Z,40.35
2022-09-23T12:15:43.299Z,40.52
2022-09-23T12:18:23.267Z,39.87
2022-09-23T12:21:51.451Z,39.85
2022-09-23T12:24:31.436Z,39.98
2022-09-23T12:27:06.268Z,39.61
2022-09-23T12:29:36.863Z,38.87
2022-09-23T12:32:10.041Z,39.30
2022-09-23T12:34:49.006Z,38.72
2022-09-23T12:37:37.133Z,38.61
2022-09-23T12:40:30.326Z,38.88
2022-09-23T12:43:01.243Z,38.32
2022-09-23T12:45:32.640Z,38.32
2022-09-23T12:48:21.712Z,38.26
2022-09-23T12:51:06.711Z,37.08
2022-09-23T12:53:34.396Z,37.07
2022-09-23T12:56:31.715Z,37.03
2022-09-23T12:59:11.267Z,37.10
2022-09-23T13:01:39.724Z,37.14
2022-09-23T13:05:10.025Z,36.89
2022-09-23T13:07:45.853Z,37.55
2022-09-23T13:10:39.736Z,36.99
2022-09-23T13:13:24.941Z,37.08
2022-09-23T13:15:54.072Z,37.32
2022-09-23T13:18:21.784Z,37.23
2022-09-23T13:20:52.367Z,36.89
2022-09-23T13:23:28.579Z,36.76
2022-09-23T13:26:00.052Z,37.34
2022-09-23T13:28:59.054Z,37.42
2022-09-23T13:31:27.066Z,37.52
2022-09-23T13:34:03.015Z,37.61
2022-09-23T13:36:33.520Z,37.51
2022-09-23T13:39:26.583Z,37.20
2022-09-23T13:42:01.300Z,36.61
2022-09-23T13:44:29.803Z,36.91
2022-09-23T13:47:01.075Z,36.54
2022-09-23T13:49:36.567Z,37.05
2022-09-23T13:52:04.387Z,36.82
2022-09-23T13:54:38.273Z,36.19
2022-09-23T13:57:06.003Z,35.95
2022-09-23T13:59:42.458Z,36.06
2022-09-23T14:02:19.080Z,36.24
2022-09-23T14:04:47.134Z,36.16
2022-09-23T14:07:16.764Z,36.39
2022-09-23T14:09:49.106Z,35.55
2022-09-23T14:12:22.457Z,35.91
2022-09-23T14:14:51.857Z,36.09
2022-09-23T14:17:25.130Z,35.34
2022-09-23T14:19:52.964Z,35.59
2022-09-23T14:22:28.019Z,35.25
2022-09-23T14:24:57.460Z,34.86
2022-09-23T14:27:33.830Z,35.51
2022-09-23T14:30:04.024Z,35.26
2022-09-23T14:32:32.799Z,35.76
2022-09-23T14:35:00.435Z,35.53
2022-09-23T14:37:55.606Z,35.53
2022-09-23T14:40:29.668Z,35.76
2022-09-23T14:43:17.087Z,35.91
2022-09-23T14:45:50.487Z,35.95
2022-09-23T14:48:23.259Z,35.45
2022-09-23T14:51:04.541Z,35.57
2022-09-23T14:53:42.958Z,35.74
2022-09-23T14:56:20.848Z,35.72
2022-09-23T15:10:31.130Z,37.00
2022-09-23T15:13:27.271Z,36.87
2022-09-23T15:15:56.828Z,37.05
2022-09-23T15:18:34.026Z,37.25
2022-09-23T15:49:36.424Z,37.85
2022-09-23T15:52:07.058Z,37.94
2022-09-23T15:54:34.859Z,38.10
2022-09-23T15:57:02.741Z,38.45
2022-09-23T16:44:20.499Z,39.65
2022-09-23T16:46:48.306Z,39.59
2022-09-23T16:49:16.037Z,39.80
2022-09-23T16:51:43.876Z,39.83
2022-09-23T16:54:13.295Z,39.90
2022-09-23T17:14:14.536Z,41.41
2022-09-23T17:16:42.990Z,41.66
2022-09-23T17:19:12.410Z,41.83
2022-09-23T17:21:40.198Z,42.19
2022-09-23T17:24:08.009Z,42.31
2022-09-23T17:26:35.769Z,42.33
2022-09-23T17:29:04.810Z,42.73
2022-09-23T17:51:09.944Z,43.82
2022-09-23T17:53:40.153Z,44.33
2022-09-23T17:56:19.746Z,44.13
2022-09-23T17:58:49.609Z,44.27
2022-09-23T18:20:39.974Z,44.97
2022-09-23T18:23:07.727Z,45.11
2022-09-23T18:25:39.577Z,45.00
2022-09-23T18:28:07.706Z,45.10
2022-09-23T18:47:32.473Z,45.30
2022-09-23T18:50:18.613Z,45.28
2022-09-23T18:52:46.308Z,45.73
2022-09-23T18:55:14.295Z,45.63
2022-09-23T19:22:47.384Z,46.22
2022-09-23T19:25:17.476Z,46.18
2022-09-23T19:27:45.233Z,46.17
2022-09-23T19:30:13.566Z,46.39
2022-09-23T19:52:16.808Z,46.05
2022-09-23T19:54:45.198Z,46.25
2022-09-23T19:57:12.900Z,46.46
2022-09-23T19:59:40.740Z,46.36
2022-09-23T20:27:09.975Z,46.79
2022-09-23T20:29:38.067Z,46.89
2022-09-23T20:32:06.137Z,47.22
2022-09-23T20:34:33.969Z,47.22
2022-09-23T20:37:01.779Z,46.98
2022-09-23T20:39:32.405Z,47.43
2022-09-23T20:42:00.558Z,47.22
2022-09-23T20:44:28.665Z,47.69
2022-09-23T20:46:56.494Z,47.85
2022-09-23T20:49:24.216Z,47.64
2022-09-23T20:51:51.981Z,47.62
2022-09-23T20:54:19.875Z,47.61
2022-09-23T20:56:48.120Z,47.61
2022-09-23T20:59:17.763Z,47.65
2022-09-23T21:01:46.760Z,47.70
2022-09-23T21:04:14.587Z,47.61
2022-09-23T21:06:42.618Z,47.80
2022-09-23T21:09:10.369Z,47.92
2022-09-23T21:11:38.207Z,47.90
2022-09-23T21:14:06.123Z,47.78
2022-09-23T21:16:34.328Z,47.94
2022-09-23T21:19:03.353Z,47.73
2022-09-23T21:21:31.153Z,47.83
2022-09-23T21:24:17.192Z,48.03
2022-09-23T21:26:47.805Z,47.83
2022-09-23T21:29:15.534Z,48.14
2022-09-23T21:31:43.360Z,48.14
2022-09-23T21:34:11.665Z,47.95
2022-09-23T21:36:44.220Z,48.08
2022-09-23T21:39:12.615Z,48.52
2022-09-23T21:41:40.543Z,48.17
2022-09-23T21:44:08.752Z,48.44
2022-09-23T21:46:37.307Z,48.46
2022-09-23T21:49:05.676Z,48.24
2022-09-23T21:51:40.522Z,48.31
2022-09-23T21:54:15.936Z,48.39
2022-09-23T21:56:44.497Z,48.33
2022-09-23T21:59:12.434Z,48.55
2022-09-23T22:01:49.307Z,48.58
2022-09-23T22:04:20.721Z,48.86
2022-09-23T22:06:49.162Z,48.94
2022-09-23T22:09:20.620Z,49.20
2022-09-23T22:12:09.618Z,49.21
2022-09-23T22:14:39.084Z,49.35
2022-09-23T22:17:11.473Z,49.46
2022-09-23T22:19:44.240Z,49.72
2022-09-23T22:22:16.613Z,49.87
2022-09-23T22:24:46.974Z,49.61
2022-09-23T22:27:18.876Z,49.73
2022-09-23T22:30:05.312Z,49.58
2022-09-23T22:32:43.507Z,49.84
2022-09-23T22:35:17.585Z,49.77
2022-09-23T22:37:46.014Z,49.03
2022-09-23T22:40:15.743Z,49.51
2022-09-23T22:42:44.287Z,49.74
2022-09-23T22:45:12.555Z,49.62
2022-09-23T22:47:45.270Z,49.86
2022-09-23T22:50:14.722Z,49.61
2022-09-23T22:52:42.754Z,49.80
2022-09-23T22:55:11.822Z,49.71
2022-09-23T22:57:39.609Z,49.72
2022-09-23T23:00:09.427Z,49.77
2022-09-23T23:02:37.244Z,49.60
2022-09-23T23:05:05.580Z,49.78
2022-09-23T23:07:35.082Z,49.92
2022-09-23T23:10:04.002Z,49.79
2022-09-23T23:12:33.465Z,49.85
2022-09-23T23:15:01.239Z,49.84
2022-09-23T23:17:29.803Z,49.59
2022-09-23T23:19:58.015Z,49.77
2022-09-23T23:22:28.658Z,49.88
2022-09-23T23:24:56.726Z,49.76
2022-09-23T23:27:24.559Z,49.73
2022-09-23T23:29:52.302Z,49.60
2022-09-23T23:32:20.022Z,49.75
2022-09-23T23:34:47.757Z,49.78
2022-09-23T23:37:20.080Z,49.90
2022-09-23T23:39:48.634Z,49.75
2022-09-23T23:42:16.342Z,49.97
2022-09-23T23:44:44.414Z,50.23
2022-09-23T23:47:13.281Z,50.16
2022-09-23T23:49:41.024Z,50.28
2022-09-23T23:52:08.894Z,50.40
2022-09-23T23:54:36.645Z,50.14
2022-09-23T23:57:04.570Z,50.25
2022-09-23T23:59:34.362Z,50.07
